Time;durP1;ratioP1;P1;durP2;ratioP2;P2;SDS_P1;SDS_P2;PMS_P1;PMS_P2;Temp;Humidity;BMP_temperature;BMP_pressure;BME280_temperature;BME280_humidity;BME280_pressure;Samples;Min_cycle;Max_cycle;Signal;HPM_P1;HPM_P2
2023/10/26 04:01:18;;;;;;;22.60;12.45;;;9.50;99.90;;;;;;5543018;23;20291;-72
2023/10/26 04:03:45;;;;;;;27.25;12.57;;;9.50;99.90;;;;;;4975949;28;20227;-71
2023/10/26 04:06:12;;;;;;;19.70;11.63;;;9.50;99.90;;;;;;4980544;28;20636;-72
2023/10/26 04:08:39;;;;;;;18.98;11.25;;;9.50;99.90;;;;;;4978369;28;20661;-72
2023/10/26 04:11:05;;;;;;;18.85;12.05;;;9.50;99.90;;;;;;4975664;28;20224;-71
2023/10/26 04:13:32;;;;;;;17.95;10.23;;;9.50;99.90;;;;;;4974579;28;20204;-71
2023/10/26 04:16:02;;;;;;;22.40;12.65;;;9.50;99.90;;;;;;4991826;23;20232;-71
2023/10/26 04:18:30;;;;;;;19.70;13.15;;;9.50;99.90;;;;;;4980857;28;20210;-73
2023/10/26 04:20:57;;;;;;;17.63;10.70;;;9.50;99.90;;;;;;4984514;28;20215;-72
2023/10/26 04:23:24;;;;;;;18.27;11.38;;;9.50;99.90;;;;;;4981878;28;20656;-72
2023/10/26 04:25:51;;;;;;;24.25;14.27;;;9.50;99.90;;;;;;4962215;28;20232;-71
2023/10/26 04:28:18;;;;;;;21.77;13.77;;;9.50;99.90;;;;;;4962759;28;20208;-72
2023/10/26 04:30:45;;;;;;;20.92;12.68;;;9.50;99.90;;;;;;4961227;28;20237;-72
2023/10/26 04:33:12;;;;;;;23.00;14.13;;;9.50;99.90;;;;;;4962046;28;20205;-72
2023/10/26 04:35:42;;;;;;;24.80;13.63;;;9.50;99.90;;;;;;4963907;28;20225;-71
2023/10/26 04:38:09;;;;;;;21.02;12.48;;;9.50;99.90;;;;;;4968503;28;20584;-72
2023/10/26 04:40:36;;;;;;;22.38;11.98;;;9.50;99.90;;;;;;4958231;28;20222;-72
2023/10/26 04:43:03;;;;;;;25.80;13.95;;;9.50;99.90;;;;;;4961587;28;20220;-72
2023/10/26 04:45:30;;;;;;;20.67;12.88;;;9.50;99.90;;;;;;4967390;28;20228;-73
2023/10/26 04:47:57;;;;;;;22.88;11.32;;;9.50;99.90;;;;;;4960408;28;20209;-72
2023/10/26 04:50:23;;;;;;;21.48;12.80;;;9.50;99.90;;;;;;4957813;28;20214;-72
2023/10/26 04:52:51;;;;;;;19.50;10.38;;;9.50;99.90;;;;;;4963277;28;20225;-72
2023/10/26 04:55:18;;;;;;;20.65;12.10;;;9.50;99.90;;;;;;4965953;28;20591;-72
2023/10/26 04:57:45;;;;;;;18.98;11.23;;;9.50;99.90;;;;;;4962984;28;20286;-72
2023/10/26 05:00:13;;;;;;;23.80;12.98;;;9.50;99.90;;;;;;4959335;28;20205;-73
2023/10/26 05:02:41;;;;;;;19.00;11.77;;;9.50;99.90;;;;;;4963430;28;20209;-71
2023/10/26 05:05:08;;;;;;;22.60;12.55;;;9.50;99.90;;;;;;4960560;28;20240;-72
2023/10/26 05:07:35;;;;;;;23.17;13.48;;;9.50;99.90;;;;;;4963319;28;20280;-72
2023/10/26 05:10:05;;;;;;;21.60;12.73;;;9.50;99.90;;;;;;4961795;28;20205;-72
2023/10/26 05:12:32;;;;;;;23.88;13.45;;;9.50;99.90;;;;;;4961016;28;20250;-72
2023/10/26 05:14:58;;;;;;;28.00;13.93;;;9.50;99.90;;;;;;4968264;28;20232;-72
2023/10/26 05:17:25;;;;;;;23.25;13.68;;;9.50;99.90;;;;;;4957814;28;20207;-71
2023/10/26 05:19:52;;;;;;;27.45;12.48;;;9.50;99.90;;;;;;4964761;28;20209;-73
2023/10/26 05:22:19;;;;;;;22.13;12.82;;;9.50;99.90;;;;;;4957986;28;20206;-71
2023/10/26 05:24:46;;;;;;;24.33;13.45;;;9.50;99.90;;;;;;4960894;28;20725;-71
2023/10/26 05:27:14;;;;;;;21.55;12.88;;;9.50;99.90;;;;;;4970574;28;20233;-72
2023/10/26 05:29:40;;;;;;;31.10;15.05;;;9.50;99.90;;;;;;4962091;28;20212;-72
2023/10/26 05:32:07;;;;;;;17.33;11.73;;;9.50;99.90;;;;;;4962356;28;20208;-71
2023/10/26 05:34:34;;;;;;;25.70;12.50;;;9.50;99.90;;;;;;4959784;28;20599;-71
2023/10/26 05:37:01;;;;;;;23.40;12.60;;;9.50;99.90;;;;;;4955860;28;20205;-72
2023/10/26 05:39:27;;;;;;;23.38;12.07;;;9.40;99.90;;;;;;4961297;28;20206;-72
2023/10/26 05:41:54;;;;;;;19.20;12.45;;;9.50;99.90;;;;;;4960249;28;20212;-71
2023/10/26 05:44:22;;;;;;;24.58;12.38;;;9.50;99.90;;;;;;4961701;28;20200;-72
2023/10/26 05:46:49;;;;;;;24.05;12.80;;;9.50;99.90;;;;;;4965253;28;20240;-71
2023/10/26 05:49:16;;;;;;;22.60;12.20;;;9.50;99.90;;;;;;4964106;28;20295;-71
2023/10/26 05:51:42;;;;;;;24.52;13.45;;;9.40;99.90;;;;;;4969622;28;20213;-71
2023/10/26 05:54:10;;;;;;;22.13;12.85;;;9.50;99.90;;;;;;4968818;28;20307;-72
2023/10/26 05:56:37;;;;;;;20.30;12.07;;;9.50;99.90;;;;;;4972370;28;20351;-73
2023/10/26 05:59:04;;;;;;;27.45;13.18;;;9.50;99.90;;;;;;4958252;28;20654;-72
2023/10/26 06:01:32;;;;;;;23.95;12.38;;;9.50;99.90;;;;;;4959571;28;20556;-72
2023/10/26 06:03:59;;;;;;;25.30;14.50;;;9.50;99.90;;;;;;4955603;28;20220;-71
2023/10/26 06:06:26;;;;;;;24.10;12.13;;;9.50;99.90;;;;;;4969038;28;20247;-73
2023/10/26 06:08:52;;;;;;;25.50;13.00;;;9.50;99.90;;;;;;4955537;28;20220;-73
2023/10/26 06:11:19;;;;;;;22.55;13.27;;;9.50;99.90;;;;;;4954075;29;20216;-74
2023/10/26 06:13:46;;;;;;;20.95;12.55;;;9.50;99.90;;;;;;4955179;28;20213;-72
2023/10/26 06:16:15;;;;;;;22.98;13.20;;;9.50;99.90;;;;;;4962507;28;20233;-72
2023/10/26 06:18:43;;;;;;;22.48;13.73;;;9.50;99.90;;;;;;4960097;28;20211;-72
2023/10/26 06:21:10;;;;;;;30.35;14.20;;;9.50;99.90;;;;;;4954149;29;20220;-73
2023/10/26 06:23:37;;;;;;;20.63;12.55;;;9.50;99.90;;;;;;4953717;29;20608;-72
2023/10/26 06:26:04;;;;;;;24.92;13.32;;;9.50;99.90;;;;;;4958395;28;20228;-71
2023/10/26 06:28:31;;;;;;;28.42;13.40;;;9.50;99.90;;;;;;4961480;28;20209;-74
2023/10/26 06:31:08;;;;;;;28.05;14.80;;;9.50;99.90;;;;;;4959074;28;20207;-72
2023/10/26 06:33:35;;;;;;;23.02;11.82;;;9.50;99.90;;;;;;4957368;28;20200;-74
2023/10/26 06:36:04;;;;;;;22.02;11.85;;;9.50;99.90;;;;;;4964924;28;20256;-72
2023/10/26 06:38:30;;;;;;;24.50;11.38;;;9.50;99.90;;;;;;4961425;28;20216;-72
2023/10/26 06:40:57;;;;;;;28.58;14.07;;;9.50;99.90;;;;;;4958465;28;20224;-71
2023/10/26 06:43:24;;;;;;;21.33;12.43;;;9.50;99.90;;;;;;4962738;28;20544;-72
2023/10/26 06:45:51;;;;;;;22.63;11.65;;;9.50;99.90;;;;;;4961950;28;20228;-71
2023/10/26 06:48:18;;;;;;;24.33;13.50;;;9.60;99.90;;;;;;4962236;28;20603;-72
2023/10/26 06:50:45;;;;;;;26.00;13.10;;;9.60;99.90;;;;;;4961000;28;20677;-71
2023/10/26 06:53:14;;;;;;;25.80;12.38;;;9.60;99.90;;;;;;4953392;28;20220;-72
2023/10/26 06:55:41;;;;;;;18.73;11.98;;;9.60;99.90;;;;;;4968831;28;20228;-72
2023/10/26 06:58:08;;;;;;;22.42;11.63;;;9.60;99.90;;;;;;4963164;28;20300;-73
2023/10/26 07:00:35;;;;;;;24.63;12.45;;;9.60;99.90;;;;;;4959711;28;20215;-71
2023/10/26 07:03:02;;;;;;;30.55;14.05;;;9.60;99.90;;;;;;4962296;28;20232;-73
2023/10/26 07:05:28;;;;;;;22.50;11.10;;;9.60;99.90;;;;;;4955151;28;20231;-72
2023/10/26 07:07:55;;;;;;;31.13;13.87;;;9.60;99.90;;;;;;4967340;28;20228;-71
2023/10/26 07:10:24;;;;;;;30.45;15.18;;;9.60;99.90;;;;;;4955324;28;20330;-73
2023/10/26 07:12:50;;;;;;;32.40;14.30;;;9.70;99.90;;;;;;4958998;28;20222;-72
2023/10/26 07:15:17;;;;;;;25.63;11.73;;;9.70;99.90;;;;;;4960181;28;20244;-75
2023/10/26 07:17:44;;;;;;;21.67;11.23;;;9.70;99.90;;;;;;4956984;28;20210;-75
2023/10/26 07:20:13;;;;;;;24.95;12.75;;;9.70;99.90;;;;;;4959970;28;20233;-72
2023/10/26 07:22:40;;;;;;;30.15;15.20;;;9.70;99.90;;;;;;4956429;28;20208;-72
2023/10/26 07:25:08;;;;;;;28.35;13.50;;;9.70;99.90;;;;;;4959000;28;20225;-72
2023/10/26 07:27:37;;;;;;;25.83;13.90;;;9.80;99.90;;;;;;4964116;28;20721;-72
2023/10/26 07:30:04;;;;;;;23.48;13.13;;;9.80;99.90;;;;;;4959094;28;20329;-72
2023/10/26 07:32:32;;;;;;;36.25;15.57;;;9.80;99.90;;;;;;4958887;28;20210;-72
2023/10/26 07:35:01;;;;;;;30.08;13.18;;;9.80;99.90;;;;;;4960073;28;20228;-73
2023/10/26 07:37:28;;;;;;;28.42;13.60;;;9.80;99.90;;;;;;4953573;28;20264;-72
2023/10/26 07:39:55;;;;;;;28.42;12.95;;;9.80;99.90;;;;;;4963547;28;20206;-72
2023/10/26 07:42:21;;;;;;;22.50;11.90;;;9.80;99.90;;;;;;4957553;28;20235;-71
2023/10/26 07:44:54;;;;;;;25.75;13.93;;;9.80;99.90;;;;;;4957809;28;20228;-71
2023/10/26 07:47:20;;;;;;;26.30;12.05;;;9.90;99.90;;;;;;4958869;28;20246;-71
2023/10/26 07:49:48;;;;;;;22.35;12.40;;;9.90;99.90;;;;;;4958473;28;20217;-71
2023/10/26 07:52:15;;;;;;;32.65;13.35;;;9.90;99.90;;;;;;4963523;28;20207;-72
2023/10/26 07:54:42;;;;;;;22.55;12.43;;;9.90;99.90;;;;;;4956138;28;20713;-71
2023/10/26 07:57:09;;;;;;;30.13;12.75;;;9.90;99.90;;;;;;4959224;28;20217;-73
2023/10/26 07:59:35;;;;;;;29.50;13.07;;;10.00;99.90;;;;;;4961289;28;20228;-74
2023/10/26 08:02:04;;;;;;;28.70;14.68;;;10.00;99.90;;;;;;4959239;28;20220;-71
2023/10/26 08:04:32;;;;;;;28.40;12.02;;;10.00;99.90;;;;;;4964696;28;20216;-71
2023/10/26 08:07:00;;;;;;;24.13;12.57;;;10.00;99.90;;;;;;4959217;28;20226;-71
2023/10/26 08:09:31;;;;;;;26.27;14.30;;;10.00;99.90;;;;;;4956559;28;20246;-73
2023/10/26 08:11:58;;;;;;;23.73;12.85;;;10.00;99.90;;;;;;4962216;28;20218;-72
2023/10/26 08:14:25;;;;;;;26.58;13.63;;;10.00;99.90;;;;;;4956580;29;20224;-72
2023/10/26 08:16:52;;;;;;;34.70;13.82;;;10.10;99.90;;;;;;4956925;28;20289;-72
2023/10/26 08:19:20;;;;;;;26.65;12.18;;;10.10;99.90;;;;;;4964801;28;20202;-72
2023/10/26 08:21:47;;;;;;;28.05;13.25;;;10.10;99.90;;;;;;4961779;28;20728;-72
2023/10/26 08:24:13;;;;;;;27.65;15.55;;;10.10;99.90;;;;;;4961807;28;20213;-72
2023/10/26 08:26:40;;;;;;;36.13;15.93;;;10.10;99.90;;;;;;4956671;28;20719;-72
2023/10/26 08:29:07;;;;;;;31.05;14.23;;;10.20;99.90;;;;;;4959769;28;20216;-72
2023/10/26 08:31:36;;;;;;;28.40;13.02;;;10.20;99.90;;;;;;4963131;28;20206;-72
2023/10/26 08:34:03;;;;;;;33.72;14.60;;;10.20;99.90;;;;;;4968084;28;20218;-72
2023/10/26 08:36:31;;;;;;;28.95;13.82;;;10.20;99.90;;;;;;4972623;28;20714;-72
2023/10/26 08:38:58;;;;;;;30.05;12.90;;;10.20;99.90;;;;;;4967109;28;20206;-72
2023/10/26 08:41:25;;;;;;;30.38;14.95;;;10.20;99.90;;;;;;4960022;28;20202;-72
2023/10/26 08:43:52;;;;;;;28.35;13.13;;;10.30;99.90;;;;;;4960008;28;20207;-72
2023/10/26 08:46:20;;;;;;;23.35;12.27;;;10.30;99.90;;;;;;4963015;28;20225;-72
2023/10/26 08:48:49;;;;;;;23.73;12.23;;;10.30;99.90;;;;;;4965192;28;20235;-72
2023/10/26 08:51:16;;;;;;;25.65;13.57;;;10.30;99.90;;;;;;4960153;28;20221;-73
2023/10/26 08:53:44;;;;;;;31.65;13.55;;;10.40;99.90;;;;;;4958624;28;20214;-72
2023/10/26 08:56:11;;;;;;;27.77;12.63;;;10.40;99.90;;;;;;4959866;28;20231;-72
2023/10/26 08:58:38;;;;;;;29.25;13.50;;;10.40;99.90;;;;;;4958864;28;20206;-73
2023/10/26 09:01:06;;;;;;;26.38;12.80;;;10.50;99.90;;;;;;4963122;28;20218;-72
2023/10/26 09:03:35;;;;;;;24.98;13.27;;;10.50;99.90;;;;;;4956125;28;20207;-71
2023/10/26 09:06:02;;;;;;;25.92;12.88;;;10.50;99.90;;;;;;4958516;28;20233;-72
2023/10/26 09:08:30;;;;;;;25.42;13.65;;;10.60;99.90;;;;;;4958769;28;20220;-71
2023/10/26 09:10:58;;;;;;;29.83;13.50;;;10.60;99.90;;;;;;4968586;28;20249;-72
2023/10/26 09:13:26;;;;;;;25.58;11.82;;;10.70;99.90;;;;;;4971629;28;20470;-72
2023/10/26 09:15:55;;;;;;;23.10;13.77;;;10.70;99.90;;;;;;4958140;28;20727;-72
2023/10/26 09:18:22;;;;;;;31.65;14.98;;;10.70;99.90;;;;;;4958290;28;20203;-74
2023/10/26 09:21:04;;;;;;;29.52;13.48;;;10.80;99.90;;;;;;4960282;28;20679;-72
2023/10/26 09:23:32;;;;;;;26.20;14.13;;;10.90;99.90;;;;;;4956561;28;20227;-73
2023/10/26 09:26:02;;;;;;;23.17;11.30;;;10.90;99.90;;;;;;4958345;28;20736;-72
2023/10/26 09:28:29;;;;;;;24.77;11.43;;;10.90;99.90;;;;;;4961469;28;20490;-73
2023/10/26 09:30:59;;;;;;;20.80;10.82;;;11.00;99.90;;;;;;4957875;28;20297;-72
2023/10/26 09:33:27;;;;;;;27.00;11.07;;;11.00;99.90;;;;;;4956707;28;20203;-73
2023/10/26 09:35:54;;;;;;;17.73;11.93;;;11.10;99.90;;;;;;4958392;28;20533;-73
2023/10/26 09:38:35;;;;;;;22.02;12.10;;;11.10;99.90;;;;;;4963068;28;20200;-73
2023/10/26 09:41:06;;;;;;;21.83;11.70;;;11.10;99.90;;;;;;4964875;28;20642;-72
2023/10/26 09:43:32;;;;;;;24.80;11.90;;;11.20;99.90;;;;;;4961230;28;21011;-73
2023/10/26 09:45:59;;;;;;;19.80;11.93;;;11.20;99.90;;;;;;4954806;28;20589;-72
2023/10/26 09:48:27;;;;;;;20.55;12.77;;;11.20;99.90;;;;;;4954619;28;20502;-72
2023/10/26 09:50:54;;;;;;;24.20;12.50;;;11.20;99.90;;;;;;4958319;28;20211;-72
2023/10/26 09:53:22;;;;;;;23.63;10.93;;;11.20;99.90;;;;;;4958242;28;20471;-72
2023/10/26 09:55:50;;;;;;;15.33;9.33;;;11.20;99.90;;;;;;4962432;28;20661;-73
2023/10/26 09:58:19;;;;;;;19.93;10.67;;;11.30;99.90;;;;;;4959979;28;20464;-72
2023/10/26 10:00:46;;;;;;;14.87;10.20;;;11.30;99.90;;;;;;4955784;28;21017;-71
2023/10/26 10:03:14;;;;;;;16.20;10.17;;;11.20;99.90;;;;;;4958854;28;20499;-71
2023/10/26 10:05:42;;;;;;;21.07;9.73;;;11.30;99.90;;;;;;4957284;28;21030;-71
2023/10/26 10:08:09;;;;;;;21.00;10.57;;;11.30;99.90;;;;;;4960210;28;20497;-71
2023/10/26 10:10:36;;;;;;;17.60;8.90;;;11.40;99.90;;;;;;4957754;28;20495;-72
2023/10/26 10:13:04;;;;;;;18.57;9.80;;;11.40;99.90;;;;;;4955120;28;20220;-72
2023/10/26 10:15:38;;;;;;;13.70;9.37;;;11.40;99.90;;;;;;4986646;23;21135;-73
2023/10/26 10:18:05;;;;;;;17.10;10.30;;;11.50;99.90;;;;;;4976109;28;20866;-73
2023/10/26 10:20:33;;;;;;;12.73;9.97;;;11.50;99.90;;;;;;4982619;28;20471;-73
2023/10/26 10:23:02;;;;;;;15.90;8.60;;;11.50;99.90;;;;;;4975903;28;20471;-73
2023/10/26 10:25:56;;;;;;;14.43;8.80;;;11.50;99.90;;;;;;4979697;28;20518;-72
2023/10/26 10:28:23;;;;;;;16.83;9.97;;;11.60;99.90;;;;;;4963036;28;20494;-72
2023/10/26 10:30:55;;;;;;;13.40;8.83;;;11.60;99.90;;;;;;4959999;28;20472;-72
2023/10/26 10:33:24;;;;;;;13.43;8.70;;;11.60;99.90;;;;;;4955288;28;20468;-73
2023/10/26 10:36:01;;;;;;;15.10;10.33;;;11.70;99.90;;;;;;4954096;28;20492;-73
2023/10/26 10:38:28;;;;;;;15.57;9.00;;;11.70;99.90;;;;;;4955405;28;20475;-72
2023/10/26 10:41:08;;;;;;;15.30;9.43;;;11.60;99.90;;;;;;4964223;28;20468;-73
2023/10/26 10:43:37;;;;;;;12.00;8.80;;;11.60;99.90;;;;;;4963030;28;20588;-72
2023/10/26 10:46:16;;;;;;;13.00;8.33;;;11.60;99.90;;;;;;4953285;28;20571;-72
2023/10/26 10:48:56;;;;;;;13.00;9.50;;;11.70;99.90;;;;;;4953899;28;20500;-72
2023/10/26 10:51:27;;;;;;;12.30;8.33;;;11.70;99.90;;;;;;4966467;28;20879;-72
2023/10/26 10:53:54;;;;;;;12.83;8.90;;;11.80;99.90;;;;;;4958140;28;20497;-72
2023/10/26 10:56:23;;;;;;;14.07;8.70;;;11.80;99.90;;;;;;4956964;28;20495;-72
2023/10/26 10:58:50;;;;;;;11.57;6.97;;;11.80;99.90;;;;;;4954410;28;20460;-72
2023/10/26 11:01:22;;;;;;;10.87;7.80;;;11.80;99.90;;;;;;4957740;28;20992;-72
2023/10/26 11:03:49;;;;;;;11.60;8.70;;;11.70;99.90;;;;;;4957847;28;20468;-72
2023/10/26 11:06:17;;;;;;;9.10;6.30;;;11.70;99.90;;;;;;4966651;28;20498;-72
2023/10/26 11:08:45;;;;;;;10.50;6.83;;;11.70;99.90;;;;;;4953491;28;20488;-72
2023/10/26 11:11:26;;;;;;;8.00;6.73;;;11.70;99.90;;;;;;4959737;28;20467;-72
2023/10/26 11:14:09;;;;;;;9.27;7.00;;;11.70;99.90;;;;;;4956391;28;20471;-71
2023/10/26 11:16:38;;;;;;;10.23;6.27;;;11.60;99.90;;;;;;4956515;28;20493;-73
2023/10/26 11:19:05;;;;;;;10.37;7.67;;;11.60;99.90;;;;;;4955439;28;20554;-73
2023/10/26 11:21:32;;;;;;;8.70;7.77;;;11.60;99.90;;;;;;4952997;29;20996;-73
2023/10/26 11:23:59;;;;;;;13.43;7.73;;;11.60;99.90;;;;;;4954114;28;20480;-72
2023/10/26 11:26:25;;;;;;;11.00;7.97;;;11.60;99.90;;;;;;4952716;28;20483;-72
2023/10/26 11:28:52;;;;;;;8.67;7.20;;;11.60;99.90;;;;;;4952732;29;20506;-72
2023/10/26 11:31:34;;;;;;;11.27;7.07;;;11.60;99.90;;;;;;4953166;29;20834;-73
2023/10/26 11:34:05;;;;;;;10.60;7.60;;;11.60;99.90;;;;;;4966710;28;20478;-73
2023/10/26 11:36:32;;;;;;;9.73;7.87;;;11.70;99.90;;;;;;4971161;28;20494;-72
2023/10/26 11:38:59;;;;;;;8.53;7.63;;;11.80;99.90;;;;;;4966425;28;20545;-72
2023/10/26 11:41:28;;;;;;;8.70;6.97;;;11.80;99.90;;;;;;4973198;28;20471;-72
2023/10/26 11:43:55;;;;;;;7.70;7.00;;;11.80;99.90;;;;;;4976189;28;20489;-72
2023/10/26 11:46:29;;;;;;;7.07;6.37;;;11.80;99.90;;;;;;4975908;28;20574;-73
2023/10/26 11:48:56;;;;;;;8.50;5.53;;;11.80;99.90;;;;;;4973692;28;20850;-72
2023/10/26 11:51:24;;;;;;;7.07;6.40;;;11.80;99.90;;;;;;4962205;28;20991;-72
2023/10/26 11:53:51;;;;;;;6.83;6.23;;;11.80;99.90;;;;;;4963751;28;20464;-73
2023/10/26 11:56:18;;;;;;;7.30;6.30;;;11.80;99.90;;;;;;4967668;28;20519;-72
2023/10/26 11:58:45;;;;;;;9.37;7.40;;;11.80;99.90;;;;;;4956890;28;20535;-72
2023/10/26 12:01:11;;;;;;;5.77;5.20;;;11.80;99.90;;;;;;4966537;28;20466;-73
2023/10/26 12:03:43;;;;;;;6.47;5.80;;;11.80;99.90;;;;;;4958774;28;20475;-74
2023/10/26 12:06:11;;;;;;;5.63;5.23;;;11.80;99.90;;;;;;4967591;28;21059;-73
2023/10/26 12:08:39;;;;;;;5.87;5.30;;;11.70;99.90;;;;;;4958162;28;20494;-73
2023/10/26 12:11:06;;;;;;;6.00;5.50;;;11.70;99.90;;;;;;4956620;28;20471;-72
2023/10/26 12:13:34;;;;;;;7.20;6.00;;;11.70;99.90;;;;;;4970775;28;20474;-73
2023/10/26 12:16:01;;;;;;;6.13;5.53;;;11.70;99.90;;;;;;4963301;28;20585;-73
2023/10/26 12:18:27;;;;;;;6.20;5.60;;;11.70;99.90;;;;;;4963277;28;20474;-72
2023/10/26 12:20:54;;;;;;;5.83;4.87;;;11.60;99.90;;;;;;4959104;28;20480;-73
2023/10/26 12:23:21;;;;;;;6.60;5.37;;;11.60;99.90;;;;;;4961468;28;20479;-72
2023/10/26 12:25:49;;;;;;;6.27;5.67;;;11.60;99.90;;;;;;4969722;28;20486;-72
2023/10/26 12:28:17;;;;;;;6.60;6.00;;;11.60;99.90;;;;;;4964433;28;20496;-72
2023/10/26 12:30:45;;;;;;;5.30;4.90;;;11.60;99.90;;;;;;4968806;28;20497;-72
2023/10/26 12:33:12;;;;;;;5.37;4.87;;;11.60;99.90;;;;;;4962383;28;20500;-72
2023/10/26 12:35:40;;;;;;;6.80;6.27;;;11.60;99.90;;;;;;4957876;28;20491;-72
2023/10/26 12:38:07;;;;;;;5.67;5.20;;;11.60;99.90;;;;;;4955782;29;20463;-72
2023/10/26 12:40:33;;;;;;;5.33;4.83;;;11.60;99.90;;;;;;4955708;29;20479;-72
2023/10/26 12:43:01;;;;;;;5.83;5.33;;;11.50;99.90;;;;;;4959086;28;20476;-72
2023/10/26 12:45:27;;;;;;;5.93;5.53;;;11.60;99.90;;;;;;4964646;28;20491;-72
2023/10/26 12:47:54;;;;;;;5.83;5.43;;;11.60;99.90;;;;;;4958834;28;20218;-72
2023/10/26 12:50:21;;;;;;;5.40;5.00;;;11.60;99.90;;;;;;4968573;28;20988;-73
2023/10/26 12:52:48;;;;;;;5.50;5.10;;;11.60;99.90;;;;;;4966382;28;20471;-71
2023/10/26 12:55:15;;;;;;;6.57;5.90;;;11.60;99.90;;;;;;4970031;28;20492;-73
2023/10/26 12:57:41;;;;;;;5.53;5.17;;;11.60;99.90;;;;;;4966299;28;21314;-72
2023/10/26 13:00:10;;;;;;;4.63;4.23;;;11.60;99.90;;;;;;4960519;28;20490;-72
2023/10/26 13:02:37;;;;;;;5.70;5.10;;;11.60;99.90;;;;;;4962078;28;20970;-72
2023/10/26 13:05:05;;;;;;;5.03;4.73;;;11.60;99.90;;;;;;4959155;28;20473;-71
2023/10/26 13:07:32;;;;;;;5.60;5.20;;;11.60;99.90;;;;;;4954487;28;20476;-71
2023/10/26 13:09:59;;;;;;;6.30;5.70;;;11.60;99.90;;;;;;4963112;28;20532;-73
2023/10/26 13:12:25;;;;;;;6.20;5.60;;;11.60;99.90;;;;;;4961984;28;20976;-72
2023/10/26 13:14:52;;;;;;;5.57;5.07;;;11.60;99.90;;;;;;4962823;28;20471;-72
2023/10/26 13:17:20;;;;;;;5.00;4.70;;;11.60;99.90;;;;;;4956700;28;20991;-72
2023/10/26 13:19:47;;;;;;;6.40;5.90;;;11.60;99.90;;;;;;4964244;28;20540;-72
2023/10/26 13:22:14;;;;;;;5.60;5.20;;;11.60;99.90;;;;;;4958258;28;20972;-72
2023/10/26 13:24:40;;;;;;;6.00;5.40;;;11.50;99.90;;;;;;4959674;28;20463;-71
2023/10/26 13:27:07;;;;;;;6.23;5.80;;;11.50;99.90;;;;;;4961997;28;20241;-72
2023/10/26 13:29:34;;;;;;;6.20;5.70;;;11.50;99.90;;;;;;4958268;28;20493;-72
2023/10/26 13:32:00;;;;;;;6.50;6.00;;;11.50;99.90;;;;;;4965798;28;20473;-71
2023/10/26 13:34:28;;;;;;;8.20;6.63;;;11.50;99.90;;;;;;4964841;28;20209;-72
2023/10/26 13:36:55;;;;;;;6.55;5.95;;;11.50;99.90;;;;;;4963957;28;20499;-72
2023/10/26 13:39:22;;;;;;;5.78;5.38;;;11.50;99.90;;;;;;4962694;28;20798;-72
2023/10/26 13:41:49;;;;;;;6.15;5.65;;;11.50;99.90;;;;;;4973458;28;20215;-71
2023/10/26 13:44:16;;;;;;;6.45;5.95;;;11.60;99.90;;;;;;4964585;28;20229;-72
2023/10/26 13:46:42;;;;;;;5.97;5.53;;;11.60;99.90;;;;;;4969698;28;20235;-71
2023/10/26 13:49:10;;;;;;;5.63;5.23;;;11.60;99.90;;;;;;4965211;28;20497;-72
2023/10/26 13:51:38;;;;;;;7.03;6.43;;;11.60;99.90;;;;;;4957771;28;20526;-71
2023/10/26 13:54:05;;;;;;;5.97;5.50;;;11.60;99.90;;;;;;4959728;28;20502;-71
2023/10/26 13:56:33;;;;;;;5.97;5.50;;;11.60;99.90;;;;;;4964604;28;20517;-71
2023/10/26 13:59:00;;;;;;;7.15;5.35;;;11.60;99.90;;;;;;4961280;28;20224;-71
2023/10/26 14:01:27;;;;;;;5.45;5.05;;;11.50;99.90;;;;;;4963438;28;20208;-71
2023/10/26 14:03:54;;;;;;;9.07;5.17;;;11.60;99.90;;;;;;4960224;28;20219;-71
2023/10/26 14:06:24;;;;;;;6.50;6.00;;;11.50;99.90;;;;;;4957596;28;20878;-72
2023/10/26 14:08:52;;;;;;;6.23;5.63;;;11.50;99.90;;;;;;4957078;28;20523;-72
2023/10/26 14:11:19;;;;;;;5.53;5.23;;;11.50;99.90;;;;;;4965215;28;20494;-72
2023/10/26 14:13:46;;;;;;;5.40;5.00;;;11.60;99.90;;;;;;4957961;28;20483;-71
2023/10/26 14:16:14;;;;;;;5.67;5.17;;;11.50;99.90;;;;;;4959374;28;20511;-72
2023/10/26 14:18:41;;;;;;;5.53;5.07;;;11.50;99.90;;;;;;4967287;28;20465;-72
2023/10/26 14:21:07;;;;;;;5.33;4.93;;;11.50;99.90;;;;;;4965137;28;20847;-71
2023/10/26 14:23:34;;;;;;;5.67;5.17;;;11.50;99.90;;;;;;4964546;28;20472;-72
2023/10/26 14:26:02;;;;;;;6.20;5.70;;;11.50;99.90;;;;;;4964141;28;21048;-72
2023/10/26 14:28:29;;;;;;;4.90;4.60;;;11.50;99.90;;;;;;4960997;28;20467;-73
2023/10/26 14:30:56;;;;;;;5.83;5.43;;;11.50;99.90;;;;;;4959450;28;20213;-72
2023/10/26 14:33:23;;;;;;;5.70;5.30;;;11.40;99.90;;;;;;4958186;28;20898;-72
2023/10/26 14:35:51;;;;;;;5.88;5.38;;;11.40;99.90;;;;;;4964687;28;21010;-72
2023/10/26 14:38:17;;;;;;;6.90;6.30;;;11.40;99.90;;;;;;4962961;28;20258;-71
2023/10/26 14:40:46;;;;;;;6.32;5.80;;;11.40;99.90;;;;;;4958303;28;20220;-73
2023/10/26 14:43:15;;;;;;;5.00;4.60;;;11.40;99.90;;;;;;4959045;28;20684;-72
2023/10/26 14:45:42;;;;;;;5.32;4.85;;;11.40;99.90;;;;;;4958957;28;20519;-73
2023/10/26 14:48:09;;;;;;;5.30;4.65;;;11.40;99.90;;;;;;4964322;28;20240;-71
2023/10/26 14:50:36;;;;;;;5.25;4.85;;;11.40;99.90;;;;;;4963835;28;20223;-71
2023/10/26 14:53:03;;;;;;;6.17;4.67;;;11.40;99.90;;;;;;4959568;28;20262;-71
2023/10/26 14:55:32;;;;;;;5.45;5.05;;;11.40;99.90;;;;;;4963319;28;20482;-71
2023/10/26 14:57:59;;;;;;;6.90;5.60;;;11.30;99.90;;;;;;4961156;28;20207;-71
2023/10/26 15:00:27;;;;;;;5.10;4.60;;;11.30;99.90;;;;;;4966172;28;20203;-71
2023/10/26 15:02:53;;;;;;;5.28;4.53;;;11.30;99.90;;;;;;4964109;28;20469;-71
2023/10/26 15:05:20;;;;;;;5.40;5.00;;;11.30;99.90;;;;;;4966046;28;20576;-70
2023/10/26 15:07:47;;;;;;;5.45;4.50;;;11.30;99.90;;;;;;4959636;28;20469;-72
2023/10/26 15:10:13;;;;;;;4.93;4.53;;;11.30;99.90;;;;;;4960906;28;20235;-73
2023/10/26 15:12:40;;;;;;;5.00;4.40;;;11.30;99.90;;;;;;4957846;28;20214;-73
2023/10/26 15:15:07;;;;;;;5.97;4.38;;;11.20;99.90;;;;;;4956499;28;20227;-72
2023/10/26 15:17:35;;;;;;;5.18;4.78;;;11.20;99.90;;;;;;4958879;28;20215;-72
2023/10/26 15:20:02;;;;;;;6.10;4.60;;;11.20;99.90;;;;;;4963776;28;20584;-72
2023/10/26 15:22:29;;;;;;;5.60;5.07;;;11.20;99.90;;;;;;4959160;28;20959;-72
2023/10/26 15:24:56;;;;;;;4.90;4.55;;;11.20;99.90;;;;;;4956499;28;20211;-72
2023/10/26 15:27:22;;;;;;;6.32;5.72;;;11.20;99.90;;;;;;4962441;28;20218;-71
2023/10/26 15:29:49;;;;;;;5.00;4.60;;;11.10;99.90;;;;;;4960430;28;20242;-72
2023/10/26 15:32:17;;;;;;;5.50;4.32;;;11.10;99.90;;;;;;4963298;28;20210;-72
2023/10/26 15:34:46;;;;;;;7.28;6.45;;;11.10;99.90;;;;;;4960901;28;20683;-71
2023/10/26 15:37:13;;;;;;;6.90;6.30;;;11.10;99.90;;;;;;4962915;28;20282;-69
2023/10/26 15:39:41;;;;;;;6.03;5.43;;;11.10;99.90;;;;;;4955027;28;20208;-71
2023/10/26 15:42:08;;;;;;;4.85;4.22;;;11.10;99.90;;;;;;4964735;28;20213;-69
2023/10/26 15:44:35;;;;;;;5.07;4.78;;;11.00;99.90;;;;;;4963190;28;20311;-71
2023/10/26 15:47:02;;;;;;;5.57;4.95;;;11.00;99.90;;;;;;4954627;28;20241;-71
2023/10/26 15:49:29;;;;;;;5.43;5.03;;;11.00;99.90;;;;;;4959449;28;20223;-72
2023/10/26 15:51:57;;;;;;;5.03;4.63;;;11.00;99.90;;;;;;4965095;28;20625;-71
2023/10/26 15:54:24;;;;;;;5.75;5.22;;;11.00;99.90;;;;;;4955007;28;20210;-70
2023/10/26 15:56:50;;;;;;;6.30;5.78;;;11.00;99.90;;;;;;4958029;28;20241;-72
2023/10/26 15:59:17;;;;;;;5.80;4.95;;;11.00;99.90;;;;;;4962252;28;20573;-71
2023/10/26 16:01:44;;;;;;;5.13;4.72;;;10.90;99.90;;;;;;4960805;28;20217;-71
2023/10/26 16:04:10;;;;;;;4.55;4.15;;;11.00;99.90;;;;;;4962567;28;20214;-71
2023/10/26 16:06:37;;;;;;;5.75;5.35;;;10.90;99.90;;;;;;4952184;28;20248;-71
2023/10/26 16:09:05;;;;;;;5.05;4.75;;;10.90;99.90;;;;;;4956699;28;20210;-71
2023/10/26 16:11:32;;;;;;;5.85;4.82;;;10.90;99.90;;;;;;4954522;28;20209;-72
2023/10/26 16:13:59;;;;;;;5.10;4.65;;;10.90;99.90;;;;;;4962362;28;20205;-72
2023/10/26 16:16:25;;;;;;;6.13;5.00;;;10.90;99.90;;;;;;4956111;28;20233;-71
2023/10/26 16:18:52;;;;;;;6.07;4.97;;;10.90;99.90;;;;;;4960097;28;20221;-70
2023/10/26 16:21:19;;;;;;;3.90;3.70;;;10.80;99.90;;;;;;4957139;28;20224;-70
2023/10/26 16:23:45;;;;;;;4.57;4.18;;;10.80;99.90;;;;;;4959687;28;20214;-70
2023/10/26 16:26:14;;;;;;;4.65;4.30;;;10.80;99.90;;;;;;4963439;28;20226;-71
2023/10/26 16:28:40;;;;;;;5.22;4.82;;;10.80;99.90;;;;;;4965331;28;20210;-70
2023/10/26 16:31:07;;;;;;;5.20;4.82;;;10.80;99.90;;;;;;4966009;28;20228;-70
2023/10/26 16:33:36;;;;;;;4.70;4.50;;;10.80;99.90;;;;;;4957458;28;20206;-71
2023/10/26 16:36:03;;;;;;;5.82;5.22;;;10.80;99.90;;;;;;4961470;28;20618;-70
2023/10/26 16:38:30;;;;;;;5.47;4.88;;;10.80;99.90;;;;;;4957268;28;20209;-71
2023/10/26 16:40:58;;;;;;;5.70;5.30;;;10.80;99.90;;;;;;4959605;28;20689;-70